createdAt,value
2018-05-19T00:00:51.997Z,1016.08
2018-05-19T00:01:52.018Z,1016.08
2018-05-19T00:02:52.041Z,1016.06
2018-05-19T00:03:52.059Z,1016.05
2018-05-19T00:04:52.086Z,1016.03
2018-05-19T00:05:52.103Z,1016.02
2018-05-19T00:07:52.148Z,1016.04
2018-05-19T00:08:52.176Z,1016.03
2018-05-19T00:09:52.193Z,1016.04
2018-05-19T00:10:52.220Z,1016.03
2018-05-19T00:11:52.239Z,1016.01
2018-05-19T00:12:52.261Z,1016
2018-05-19T00:13:52.281Z,1016.04
2018-05-19T00:14:52.308Z,1015.98
2018-05-19T00:15:52.330Z,1016.02
2018-05-19T00:16:52.348Z,1016.02
2018-05-19T00:17:52.371Z,1016.01
2018-05-19T00:18:52.393Z,1016
2018-05-19T00:19:52.420Z,1016.02
2018-05-19T00:20:52.438Z,1016.01
2018-05-19T00:21:52.464Z,1015.99
2018-05-19T00:23:52.512Z,1016
2018-05-19T00:24:52.527Z,1015.96
2018-05-19T00:25:52.549Z,1015.97
2018-05-19T00:26:52.572Z,1016.01
2018-05-19T00:27:52.598Z,1015.99
2018-05-19T00:28:52.619Z,1016.02
2018-05-19T00:29:52.638Z,1016.03
2018-05-19T00:30:52.665Z,1016.01
2018-05-19T00:31:52.681Z,1016.02
2018-05-19T00:32:52.710Z,1016.05
2018-05-19T00:33:52.731Z,1016.02
2018-05-19T00:34:52.749Z,1016.05
2018-05-19T00:35:52.775Z,1016.02
2018-05-19T00:36:52.801Z,1016.01
2018-05-19T00:37:52.821Z,1016
2018-05-19T00:39:52.861Z,1016.03
2018-05-19T00:40:52.887Z,1016.02
2018-05-19T00:41:52.905Z,1016.05
2018-05-19T00:42:52.929Z,1016.03
2018-05-19T00:43:52.949Z,1016.07
2018-05-19T00:44:52.975Z,1016.04
2018-05-19T00:45:53.000Z,1016.06
2018-05-19T00:46:53.015Z,1016.05
2018-05-19T00:47:53.043Z,1016.06
2018-05-19T00:48:53.061Z,1016.09
2018-05-19T00:49:53.086Z,1016.04
2018-05-19T00:50:53.105Z,1016.11
2018-05-19T00:51:53.131Z,1016.1
2018-05-19T00:52:53.169Z,1016.11
2018-05-19T00:53:53.171Z,1016.1
2018-05-19T00:55:53.214Z,1016.12
2018-05-19T00:56:53.238Z,1016.1
2018-05-19T00:57:53.260Z,1016.09
2018-05-19T00:58:53.286Z,1016.11
2018-05-19T00:59:53.305Z,1016.13
2018-05-19T01:00:53.330Z,1016.1
2018-05-19T01:01:53.353Z,1016.13
2018-05-19T01:02:53.380Z,1016.13
2018-05-19T01:03:53.393Z,1016.12
2018-05-19T01:04:53.420Z,1016.13
2018-05-19T01:05:53.451Z,1016.09
2018-05-19T01:06:53.467Z,1016.11
2018-05-19T01:07:53.483Z,1016.11
2018-05-19T01:08:53.508Z,1016.1
2018-05-19T01:10:53.550Z,1016.09
2018-05-19T01:11:53.575Z,1016.05
2018-05-19T01:12:53.598Z,1016.02
2018-05-19T01:13:53.616Z,1016.05
2018-05-19T01:14:53.643Z,1016.05
2018-05-19T01:15:53.660Z,1016.06
2018-05-19T01:16:53.690Z,1016.07
2018-05-19T01:17:53.710Z,1016.07
2018-05-19T01:18:53.728Z,1016.05
2018-05-19T01:19:53.752Z,1016.1
2018-05-19T01:20:53.771Z,1016.08
2018-05-19T01:21:53.798Z,1016.04
2018-05-19T01:22:53.814Z,1016.12
2018-05-19T01:23:53.836Z,1016.09
2018-05-19T01:24:53.863Z,1016.09
2018-05-19T01:25:53.882Z,1016.13
2018-05-19T01:26:53.904Z,1016.1
2018-05-19T01:27:53.933Z,1016.11
2018-05-19T01:28:53.949Z,1016.14
2018-05-19T01:29:53.974Z,1016.15
2018-05-19T01:30:54.046Z,1016.11
2018-05-19T01:31:54.115Z,1016.11
2018-05-19T01:32:54.038Z,1016.12
2018-05-19T01:33:54.059Z,1016.13
2018-05-19T01:34:54.084Z,1016.1
2018-05-19T01:35:54.103Z,1016.12
2018-05-19T01:36:54.204Z,1016.13
2018-05-19T01:37:54.154Z,1016.11
2018-05-19T01:38:54.175Z,1016.14
2018-05-19T01:39:54.192Z,1016.15
2018-05-19T01:40:54.213Z,1016.14
2018-05-19T01:42:54.258Z,1016.14
2018-05-19T01:43:54.285Z,1016.07
2018-05-19T01:44:54.302Z,1016.12
2018-05-19T01:45:54.329Z,1016.1
2018-05-19T01:46:54.350Z,1016.12
2018-05-19T01:47:54.369Z,1016.11
2018-05-19T01:48:54.394Z,1016.16
2018-05-19T01:49:54.420Z,1016.13
2018-05-19T01:50:54.439Z,1016.18
2018-05-19T01:51:54.456Z,1016.18
2018-05-19T01:52:54.486Z,1016.15
2018-05-19T01:53:54.507Z,1016.18
2018-05-19T01:54:54.527Z,1016.16
2018-05-19T01:55:54.549Z,1016.16
2018-05-19T01:56:54.567Z,1016.15
2018-05-19T01:58:54.617Z,1016.19
2018-05-19T01:59:54.639Z,1016.19
2018-05-19T02:00:54.661Z,1016.21
2018-05-19T02:01:54.678Z,1016.22
2018-05-19T02:02:54.704Z,1016.21
2018-05-19T02:03:54.722Z,1016.22
2018-05-19T02:04:54.748Z,1016.22
2018-05-19T02:05:54.767Z,1016.22
2018-05-19T02:06:54.792Z,1016.19
2018-05-19T02:07:54.814Z,1016.2
2018-05-19T02:08:54.837Z,1016.19
2018-05-19T02:09:54.855Z,1016.15
2018-05-19T02:10:54.876Z,1016.14
2018-05-19T02:11:54.902Z,1016.17
2018-05-19T02:12:54.921Z,1016.13
2018-05-19T02:14:54.971Z,1016.15
2018-05-19T02:15:54.990Z,1016.14
2018-05-19T02:16:55.019Z,1016.13
2018-05-19T02:17:55.031Z,1016.13
2018-05-19T02:18:55.053Z,1016.11
2018-05-19T02:19:55.079Z,1016.14
2018-05-19T02:20:55.098Z,1016.09
2018-05-19T02:21:55.123Z,1016.08
2018-05-19T02:22:55.144Z,1016.12
2018-05-19T02:23:55.163Z,1016.15
2018-05-19T02:24:55.191Z,1016.09
2018-05-19T02:25:55.210Z,1016.11
2018-05-19T02:26:55.233Z,1016.06
2018-05-19T02:27:55.251Z,1016.08
2018-05-19T02:28:55.272Z,1016.11
2018-05-19T02:30:55.321Z,1016.09
2018-05-19T02:31:55.344Z,1016.07
2018-05-19T02:32:55.365Z,1016.12
2018-05-19T02:33:55.387Z,1016.08
2018-05-19T02:34:55.405Z,1016.12
2018-05-19T02:35:55.426Z,1016.08
2018-05-19T02:36:55.452Z,1016.11
2018-05-19T02:37:55.471Z,1016.11
2018-05-19T02:38:55.497Z,1016.07
2018-05-19T02:39:55.513Z,1016.12
2018-05-19T02:40:55.541Z,1016.08
2018-05-19T02:41:55.558Z,1016.13
2018-05-19T02:42:55.580Z,1016.11
2018-05-19T02:43:55.603Z,1016.11
2018-05-19T02:45:55.651Z,1016.13
2018-05-19T02:46:55.668Z,1016.14
2018-05-19T02:47:55.695Z,1016.1
2018-05-19T02:48:55.716Z,1016.14
2018-05-19T02:49:55.735Z,1016.14
2018-05-19T02:50:55.760Z,1016.17
2018-05-19T02:51:55.778Z,1016.14
2018-05-19T02:52:55.800Z,1016.14
2018-05-19T02:53:55.825Z,1016.14
2018-05-19T02:54:55.848Z,1016.1
2018-05-19T02:55:55.870Z,1016.1
2018-05-19T02:56:55.888Z,1016.11
2018-05-19T02:57:55.914Z,1016.12
2018-05-19T02:58:55.932Z,1016.1
2018-05-19T02:59:55.953Z,1016.11
2018-05-19T03:00:55.975Z,1016.12
2018-05-19T03:01:56.000Z,1016.14
2018-05-19T03:02:56.023Z,1016.11
2018-05-19T03:03:56.041Z,1016.12
2018-05-19T03:04:56.066Z,1016.16
2018-05-19T03:05:56.082Z,1016.18
2018-05-19T03:06:56.111Z,1016.15
2018-05-19T03:07:56.128Z,1016.18
2018-05-19T03:08:56.154Z,1016.15
2018-05-19T03:09:56.180Z,1016.15
2018-05-19T03:10:56.206Z,1016.16
2018-05-19T03:11:56.219Z,1016.12
2018-05-19T03:12:56.237Z,1016.18
2018-05-19T03:13:56.262Z,1016.14
2018-05-19T03:14:56.283Z,1016.18
2018-05-19T03:15:56.310Z,1016.16
2018-05-19T03:17:56.350Z,1016.16
2018-05-19T03:18:56.372Z,1016.19
2018-05-19T03:19:56.393Z,1016.17
2018-05-19T03:20:56.415Z,1016.17
2018-05-19T03:21:56.437Z,1016.15
2018-05-19T03:22:56.455Z,1016.18
2018-05-19T03:23:56.479Z,1016.18
2018-05-19T03:24:56.498Z,1016.17
2018-05-19T03:25:56.525Z,1016.16
2018-05-19T03:26:56.545Z,1016.2
2018-05-19T03:27:56.563Z,1016.2
2018-05-19T03:28:56.589Z,1016.2
2018-05-19T03:29:56.607Z,1016.24
2018-05-19T03:30:56.633Z,1016.24
2018-05-19T03:31:56.658Z,1016.21
2018-05-19T03:33:56.699Z,1016.23
2018-05-19T03:34:56.715Z,1016.23
2018-05-19T03:35:56.821Z,1016.24
2018-05-19T03:36:56.760Z,1016.22
2018-05-19T03:37:56.785Z,1016.23
2018-05-19T03:38:56.803Z,1016.22
2018-05-19T03:39:56.829Z,1016.22
2018-05-19T03:40:56.848Z,1016.19
2018-05-19T03:41:56.872Z,1016.21
2018-05-19T03:42:56.891Z,1016.2
2018-05-19T03:43:56.917Z,1016.26
2018-05-19T03:44:56.935Z,1016.23
2018-05-19T03:45:56.957Z,1016.24
2018-05-19T03:46:56.978Z,1016.3
2018-05-19T03:47:57.005Z,1016.25
2018-05-19T03:49:57.053Z,1016.28
2018-05-19T03:50:57.066Z,1016.3
2018-05-19T03:51:57.093Z,1016.33
2018-05-19T03:52:57.111Z,1016.33
2018-05-19T03:53:57.205Z,1016.37
2018-05-19T03:54:57.184Z,1016.39
2018-05-19T03:55:57.182Z,1016.36
2018-05-19T03:56:57.203Z,1016.37
2018-05-19T03:57:57.222Z,1016.34
2018-05-19T03:58:57.245Z,1016.33
2018-05-19T03:59:57.267Z,1016.35
2018-05-19T04:00:57.294Z,1016.37
2018-05-19T04:01:57.312Z,1016.38
2018-05-19T04:02:57.338Z,1016.39
2018-05-19T04:03:57.357Z,1016.4
2018-05-19T04:05:57.400Z,1016.4
2018-05-19T04:06:57.429Z,1016.41
2018-05-19T04:07:57.449Z,1016.43
2018-05-19T04:08:57.472Z,1016.41
2018-05-19T04:09:57.490Z,1016.42
2018-05-19T04:10:57.516Z,1016.43
2018-05-19T04:11:57.535Z,1016.43
2018-05-19T04:12:57.562Z,1016.45
2018-05-19T04:13:57.607Z,1016.45
2018-05-19T04:14:57.602Z,1016.47
2018-05-19T04:15:57.625Z,1016.47
2018-05-19T04:16:57.648Z,1016.49
2018-05-19T04:17:57.679Z,1016.52
2018-05-19T04:18:57.693Z,1016.53
2018-05-19T04:20:57.739Z,1016.56
2018-05-19T04:21:57.766Z,1016.58
2018-05-19T04:22:57.783Z,1016.53
2018-05-19T04:23:57.807Z,1016.57
2018-05-19T04:24:57.834Z,1016.56
2018-05-19T04:25:57.855Z,1016.57
2018-05-19T04:26:57.878Z,1016.59
2018-05-19T04:27:57.898Z,1016.59
2018-05-19T04:28:57.925Z,1016.59
2018-05-19T04:29:57.942Z,1016.6
2018-05-19T04:30:57.965Z,1016.6
2018-05-19T04:31:57.996Z,1016.65
2018-05-19T04:32:58.011Z,1016.62
2018-05-19T04:33:58.036Z,1016.66
2018-05-19T04:34:58.055Z,1016.62
2018-05-19T04:35:58.082Z,1016.62
2018-05-19T04:36:58.104Z,1016.63
2018-05-19T04:37:58.126Z,1016.65
2018-05-19T04:38:58.149Z,1016.65
2018-05-19T04:39:58.166Z,1016.7
2018-05-19T04:40:58.189Z,1016.69
2018-05-19T04:41:58.217Z,1016.64
2018-05-19T04:42:58.235Z,1016.66
2018-05-19T04:43:58.261Z,1016.67
2018-05-19T04:44:58.280Z,1016.64
2018-05-19T04:45:58.307Z,1016.66
2018-05-19T04:46:58.335Z,1016.7
2018-05-19T04:47:58.347Z,1016.67
2018-05-19T04:48:58.370Z,1016.73
2018-05-19T04:49:58.396Z,1016.69
2018-05-19T04:50:58.414Z,1016.75
2018-05-19T04:52:58.460Z,1016.79
2018-05-19T04:53:58.487Z,1016.84
2018-05-19T04:54:58.504Z,1016.87
2018-05-19T04:55:58.531Z,1016.9
2018-05-19T04:56:58.550Z,1016.91
2018-05-19T04:57:58.599Z,1016.89
2018-05-19T04:58:58.599Z,1016.91
2018-05-19T04:59:58.623Z,1016.96
2018-05-19T05:00:58.646Z,1016.93
2018-05-19T05:01:58.664Z,1016.91
2018-05-19T05:02:58.692Z,1016.99
2018-05-19T05:03:58.777Z,1017.09
2018-05-19T05:04:58.735Z,1017.06
2018-05-19T05:05:58.763Z,1017.06
2018-05-19T05:06:58.781Z,1017.07
2018-05-19T05:08:58.833Z,1017.12
2018-05-19T05:09:58.856Z,1017.14
2018-05-19T05:10:58.880Z,1017.19
2018-05-19T05:11:58.900Z,1017.25
2018-05-19T05:12:58.928Z,1017.27
2018-05-19T05:13:59.011Z,1017.32
2018-05-19T05:14:58.977Z,1017.39
2018-05-19T05:15:58.998Z,1017.38
2018-05-19T05:16:59.027Z,1017.38
2018-05-19T05:17:59.051Z,1017.37
2018-05-19T05:18:59.076Z,1017.43
2018-05-19T05:19:59.097Z,1017.45
2018-05-19T05:20:59.120Z,1017.47
2018-05-19T05:21:59.156Z,1017.48
2018-05-19T05:22:59.173Z,1017.45
2018-05-19T05:24:59.234Z,1017.47
2018-05-19T05:25:59.254Z,1017.51
2018-05-19T05:26:59.296Z,1017.54
2018-05-19T05:27:59.303Z,1017.52
2018-05-19T05:28:59.335Z,1017.53
2018-05-19T05:29:59.361Z,1017.58
2018-05-19T05:30:59.392Z,1017.63
2018-05-19T05:31:59.415Z,1017.65
2018-05-19T05:32:59.442Z,1017.65
2018-05-19T05:33:59.471Z,1017.67
2018-05-19T05:34:59.494Z,1017.76
2018-05-19T05:35:59.609Z,1017.75
2018-05-19T05:36:59.550Z,1017.76
2018-05-19T05:37:59.579Z,1017.82
2018-05-19T05:38:59.611Z,1017.8
2018-05-19T05:40:59.668Z,1017.9
2018-05-19T05:41:59.692Z,1017.86
2018-05-19T05:42:59.726Z,1017.84
2018-05-19T05:43:59.752Z,1017.89
2018-05-19T05:44:59.781Z,1017.89
2018-05-19T05:45:59.811Z,1017.85
2018-05-19T05:46:59.844Z,1017.85
2018-05-19T05:47:59.878Z,1017.85
2018-05-19T05:48:59.901Z,1017.78
2018-05-19T05:50:00.025Z,1017.76
2018-05-19T05:50:59.962Z,1017.76
2018-05-19T05:51:59.996Z,1017.74
2018-05-19T05:53:00.023Z,1017.75
2018-05-19T05:54:00.057Z,1017.76
2018-05-19T05:56:00.114Z,1017.88
2018-05-19T05:57:00.144Z,1017.9
2018-05-19T05:58:00.178Z,1017.92
2018-05-19T05:59:00.205Z,1017.94
2018-05-19T06:00:00.353Z,1017.93
2018-05-19T06:01:00.266Z,1017.92
2018-05-19T06:02:00.300Z,1018.01
2018-05-19T06:03:00.328Z,1018.07
2018-05-19T06:04:00.363Z,1018.13
2018-05-19T06:05:00.390Z,1018.13
2018-05-19T06:06:00.426Z,1018.24
2018-05-19T06:07:00.453Z,1018.24
2018-05-19T06:08:00.484Z,1018.3
2018-05-19T06:09:00.520Z,1018.32
2018-05-19T06:10:00.548Z,1018.39
2018-05-19T06:11:00.590Z,1018.41
2018-05-19T06:12:00.615Z,1018.48
2018-05-19T06:13:00.648Z,1018.48
2018-05-19T06:14:00.676Z,1018.56
2018-05-19T06:15:00.712Z,1018.61
2018-05-19T06:16:00.740Z,1018.61
2018-05-19T06:17:00.777Z,1018.6
2018-05-19T06:18:00.810Z,1018.67
2018-05-19T06:19:00.930Z,1018.67
2018-05-19T06:20:00.872Z,1018.63
2018-05-19T06:21:00.905Z,1018.7
2018-05-19T06:22:00.963Z,1018.71
2018-05-19T06:23:00.970Z,1018.71
2018-05-19T06:24:01.004Z,1018.7
2018-05-19T06:25:01.083Z,1018.68
2018-05-19T06:26:01.070Z,1018.66
2018-05-19T06:28:01.145Z,1018.66
2018-05-19T06:29:01.171Z,1018.63
2018-05-19T06:30:01.203Z,1018.64
2018-05-19T06:31:01.238Z,1018.65
2018-05-19T06:32:01.277Z,1018.62
2018-05-19T06:33:01.306Z,1018.68
2018-05-19T06:34:01.344Z,1018.66
2018-05-19T06:35:01.381Z,1018.64
2018-05-19T06:36:01.411Z,1018.64
2018-05-19T06:37:01.442Z,1018.7
2018-05-19T06:38:01.480Z,1018.69
2018-05-19T06:39:01.509Z,1018.68
2018-05-19T06:40:01.547Z,1018.65
2018-05-19T06:41:01.578Z,1018.69
2018-05-19T06:42:01.624Z,1018.78
2018-05-19T06:44:01.684Z,1018.83
2018-05-19T06:45:01.718Z,1018.88
2018-05-19T06:46:01.754Z,1018.73
2018-05-19T06:47:01.787Z,1018.56
2018-05-19T06:48:01.865Z,1018.52
2018-05-19T06:49:01.856Z,1018.5
2018-05-19T06:50:01.889Z,1018.5
2018-05-19T06:51:01.926Z,1018.5
2018-05-19T06:52:01.954Z,1018.5
2018-05-19T06:53:01.993Z,1018.47
2018-05-19T06:54:02.028Z,1018.49
2018-05-19T06:55:02.063Z,1018.48
2018-05-19T06:56:02.098Z,1018.48
2018-05-19T06:57:02.176Z,1018.54
2018-05-19T06:58:02.163Z,1018.57
2018-05-19T07:00:02.232Z,1018.56
2018-05-19T07:01:02.272Z,1018.54
2018-05-19T07:02:02.309Z,1018.58
2018-05-19T07:03:02.335Z,1018.6
2018-05-19T07:04:02.376Z,1018.58
2018-05-19T07:05:02.407Z,1018.56
2018-05-19T07:06:02.446Z,1018.55
2018-05-19T07:07:02.476Z,1018.55
2018-05-19T07:08:02.600Z,1018.55
2018-05-19T07:09:02.550Z,1018.54
2018-05-19T07:10:02.585Z,1018.59
2018-05-19T07:11:02.620Z,1018.6
2018-05-19T07:12:02.649Z,1018.64
2018-05-19T07:13:02.702Z,1018.83
2018-05-19T07:14:02.723Z,1019.27
2018-05-19T07:16:02.789Z,1019.58
2018-05-19T07:17:02.830Z,1019.65
2018-05-19T07:18:02.858Z,1019.69
2018-05-19T07:19:02.897Z,1019.57
2018-05-19T07:20:02.933Z,1019.61
2018-05-19T07:21:02.963Z,1019.62
2018-05-19T07:22:02.999Z,1019.68
2018-05-19T07:23:03.045Z,1019.65
2018-05-19T07:24:03.072Z,1019.54
2018-05-19T07:25:03.106Z,1019.61
2018-05-19T07:26:03.141Z,1019.56
2018-05-19T07:27:03.177Z,1019.43
2018-05-19T07:28:03.208Z,1019.36
2018-05-19T07:29:03.252Z,1019.42
2018-05-19T07:31:03.318Z,1019.42
2018-05-19T07:32:03.353Z,1019.36
2018-05-19T07:33:03.388Z,1019.34
2018-05-19T07:34:03.419Z,1019.24
2018-05-19T07:35:03.456Z,1019.17
2018-05-19T07:36:03.556Z,1019.17
2018-05-19T07:37:03.524Z,1019.2
2018-05-19T07:38:03.563Z,1019.15
2018-05-19T07:39:03.596Z,1019.13
2018-05-19T07:40:03.634Z,1019.15
2018-05-19T07:41:03.671Z,1019.1
2018-05-19T07:42:03.707Z,1019.13
2018-05-19T07:43:03.733Z,1019.11
2018-05-19T07:44:03.773Z,1019.15
2018-05-19T07:45:03.804Z,1019.17
2018-05-19T07:46:03.841Z,1019.12
2018-05-19T07:47:03.877Z,1019.1
2018-05-19T07:48:03.913Z,1019.1
2018-05-19T07:49:03.944Z,1019.11
2018-05-19T07:50:03.978Z,1019.06
2018-05-19T07:51:04.013Z,1019.09
2018-05-19T07:52:04.060Z,1019.06
2018-05-19T07:53:04.087Z,1019.05
2018-05-19T07:54:04.122Z,1019.1
2018-05-19T07:55:04.154Z,1019.1
2018-05-19T07:56:04.192Z,1019.13
2018-05-19T07:57:04.223Z,1019.12
2018-05-19T07:58:04.262Z,1019.1
2018-05-19T07:59:04.293Z,1019.1
2018-05-19T08:00:04.332Z,1019.11
2018-05-19T08:01:04.368Z,1019.1
2018-05-19T08:03:04.434Z,1019.06
2018-05-19T08:04:04.469Z,1019.03
2018-05-19T08:05:04.508Z,1018.97
2018-05-19T08:06:04.539Z,1018.96
2018-05-19T08:07:04.578Z,1018.87
2018-05-19T08:08:04.614Z,1018.95
2018-05-19T08:09:04.648Z,1018.86
2018-05-19T08:10:04.678Z,1018.83
2018-05-19T08:11:04.798Z,1018.79
2018-05-19T08:12:04.782Z,1018.71
2018-05-19T08:13:04.788Z,1018.65
2018-05-19T08:14:04.818Z,1018.73
2018-05-19T08:15:04.856Z,1018.67
2018-05-19T08:16:04.889Z,1018.63
2018-05-19T08:17:04.925Z,1018.61
2018-05-19T08:19:05.088Z,1018.54
2018-05-19T08:20:05.022Z,1018.51
2018-05-19T08:21:05.056Z,1018.62
2018-05-19T08:22:05.095Z,1018.68
2018-05-19T08:23:05.123Z,1018.67
2018-05-19T08:24:05.157Z,1018.68
2018-05-19T08:25:05.196Z,1018.6
2018-05-19T08:26:05.224Z,1018.63
2018-05-19T08:27:05.262Z,1018.59
2018-05-19T08:28:05.296Z,1018.59
2018-05-19T08:29:05.331Z,1018.61
2018-05-19T08:30:05.359Z,1018.61
2018-05-19T08:31:05.392Z,1018.59
2018-05-19T08:32:05.430Z,1018.64
2018-05-19T08:33:05.459Z,1018.73
2018-05-19T08:35:05.580Z,1018.72
2018-05-19T08:36:05.563Z,1018.73
2018-05-19T08:37:05.591Z,1018.64
2018-05-19T08:38:05.629Z,1018.6
2018-05-19T08:39:05.664Z,1018.56
2018-05-19T08:40:05.692Z,1018.59
2018-05-19T08:41:05.741Z,1018.63
2018-05-19T08:42:05.761Z,1018.62
2018-05-19T08:43:05.798Z,1018.59
2018-05-19T08:44:05.828Z,1018.61
2018-05-19T08:45:05.856Z,1018.61
2018-05-19T08:46:05.894Z,1018.59
2018-05-19T08:47:05.922Z,1018.52
2018-05-19T08:48:05.956Z,1018.45
2018-05-19T08:49:06.001Z,1018.46
2018-05-19T08:51:06.057Z,1018.53
2018-05-19T08:52:06.091Z,1018.56
2018-05-19T08:53:06.124Z,1018.51
2018-05-19T08:54:06.155Z,1018.51
2018-05-19T08:55:06.184Z,1018.48
2018-05-19T08:56:06.224Z,1018.5
2018-05-19T08:57:06.248Z,1018.45
2018-05-19T08:58:06.342Z,1018.51
2018-05-19T08:59:06.318Z,1018.48
2018-05-19T09:00:06.351Z,1018.46
2018-05-19T09:01:06.380Z,1018.41
2018-05-19T09:02:06.412Z,1018.42
2018-05-19T09:03:06.455Z,1018.44
2018-05-19T09:04:06.477Z,1018.5
2018-05-19T09:06:06.547Z,1018.33
2018-05-19T09:07:06.572Z,1018.36
2018-05-19T09:08:06.611Z,1018.41
2018-05-19T09:09:06.643Z,1018.38
2018-05-19T09:10:06.676Z,1018.37
2018-05-19T09:11:06.704Z,1018.34
2018-05-19T09:12:06.736Z,1018.34
2018-05-19T09:13:06.876Z,1018.36
2018-05-19T09:14:06.800Z,1018.39
2018-05-19T09:15:06.836Z,1018.31
2018-05-19T09:16:06.869Z,1018.32
2018-05-19T09:17:06.901Z,1018.28
2018-05-19T09:18:06.929Z,1018.32
2018-05-19T09:19:06.961Z,1018.34
2018-05-19T09:20:06.993Z,1018.29
2018-05-19T09:21:07.032Z,1018.31
2018-05-19T09:22:07.061Z,1018.26
2018-05-19T09:23:07.146Z,1018.25
2018-05-19T09:24:07.132Z,1018.24
2018-05-19T09:25:07.153Z,1018.24
2018-05-19T09:26:07.190Z,1018.29
2018-05-19T09:27:07.217Z,1018.28
2018-05-19T09:28:07.254Z,1018.28
2018-05-19T09:29:07.285Z,1018.32
2018-05-19T09:30:07.314Z,1018.29
2018-05-19T09:31:07.350Z,1018.28
2018-05-19T09:32:07.379Z,1018.26
2018-05-19T09:33:07.410Z,1018.28
2018-05-19T09:34:07.448Z,1018.29
2018-05-19T09:35:07.475Z,1018.35
2018-05-19T09:36:07.506Z,1018.34
2018-05-19T09:38:07.571Z,1018.31
2018-05-19T09:39:07.606Z,1018.27
2018-05-19T09:40:07.635Z,1018.28
2018-05-19T09:41:07.671Z,1018.28
2018-05-19T09:42:07.699Z,1018.29
2018-05-19T09:43:07.781Z,1018.24
2018-05-19T09:44:07.761Z,1018.21
2018-05-19T09:45:07.798Z,1018.27
2018-05-19T09:46:07.830Z,1018.29
2018-05-19T09:47:07.858Z,1018.34
2018-05-19T09:48:07.893Z,1018.27
2018-05-19T09:49:07.922Z,1018.27
2018-05-19T09:50:07.960Z,1018.27
2018-05-19T09:51:07.983Z,1018.23
2018-05-19T09:52:08.020Z,1018.25
2018-05-19T09:54:08.089Z,1018.22
2018-05-19T09:55:08.109Z,1018.31
2018-05-19T09:56:08.142Z,1018.3
2018-05-19T09:57:08.181Z,1018.31
2018-05-19T09:58:08.204Z,1018.32
2018-05-19T09:59:08.240Z,1018.38
2018-05-19T10:00:08.272Z,1018.32
2018-05-19T10:01:08.298Z,1018.32
2018-05-19T10:02:08.333Z,1018.38
2018-05-19T10:03:08.364Z,1018.35
2018-05-19T10:04:08.392Z,1018.36
2018-05-19T10:05:08.450Z,1018.38
2018-05-19T10:06:08.457Z,1018.28
2018-05-19T10:07:08.489Z,1018.41
2018-05-19T10:08:08.523Z,1018.33
2018-05-19T10:10:08.581Z,1018.31
2018-05-19T10:11:08.607Z,1018.27
2018-05-19T10:12:08.643Z,1018.27
2018-05-19T10:13:08.669Z,1018.25
2018-05-19T10:14:08.714Z,1018.31
2018-05-19T10:15:08.730Z,1018.26
2018-05-19T10:16:08.764Z,1018.26
2018-05-19T10:17:08.833Z,1018.19
2018-05-19T10:18:08.824Z,1018.19
2018-05-19T10:19:08.851Z,1018.17
2018-05-19T10:20:08.880Z,1018.19
2018-05-19T10:21:08.915Z,1018.19
2018-05-19T10:22:08.944Z,1018.18
2018-05-19T10:23:09.044Z,1018.24
2018-05-19T10:24:09.003Z,1018.19
2018-05-19T10:26:09.143Z,1018.22
2018-05-19T10:27:09.096Z,1018.23
2018-05-19T10:28:09.174Z,1018.25
2018-05-19T10:29:09.154Z,1018.25
2018-05-19T10:30:09.180Z,1018.23
2018-05-19T10:31:09.213Z,1018.29
2018-05-19T10:32:09.239Z,1018.25
2018-05-19T10:33:09.274Z,1018.24
2018-05-19T10:34:09.303Z,1018.22
2018-05-19T10:35:09.328Z,1018.26
2018-05-19T10:36:09.362Z,1018.19
2018-05-19T10:37:09.391Z,1018.23
2018-05-19T10:38:09.422Z,1018.2
2018-05-19T10:39:09.451Z,1018.17
2018-05-19T10:41:09.511Z,1018.17
2018-05-19T10:42:09.541Z,1018.17
2018-05-19T10:43:09.566Z,1018.12
2018-05-19T10:44:09.594Z,1018.14
2018-05-19T10:45:09.629Z,1018.07
2018-05-19T10:46:09.658Z,1018.06
2018-05-19T10:47:09.687Z,1018.07
2018-05-19T10:48:09.713Z,1018.07
2018-05-19T10:49:09.754Z,1018.06
2018-05-19T10:50:09.770Z,1018.05
2018-05-19T10:51:09.803Z,1018.06
2018-05-19T10:52:09.828Z,1018.04
2018-05-19T10:53:09.861Z,1018
2018-05-19T10:54:09.886Z,1018.02
2018-05-19T10:55:09.914Z,1017.98
2018-05-19T10:56:09.950Z,1018.04
2018-05-19T10:57:09.976Z,1018.06
2018-05-19T10:58:10.005Z,1017.99
2018-05-19T10:59:10.037Z,1018.02
2018-05-19T11:00:10.057Z,1017.97
2018-05-19T11:01:10.090Z,1017.92
2018-05-19T11:02:10.115Z,1017.88
2018-05-19T11:03:10.148Z,1017.97
2018-05-19T11:04:10.178Z,1017.94
2018-05-19T11:05:10.200Z,1017.92
2018-05-19T11:06:10.234Z,1017.96
2018-05-19T11:07:10.257Z,1017.97
2018-05-19T11:08:10.290Z,1017.98
2018-05-19T11:09:10.314Z,1017.95
2018-05-19T11:10:10.347Z,1017.93
2018-05-19T11:11:10.374Z,1017.94
2018-05-19T11:13:10.428Z,1017.96
2018-05-19T11:14:10.457Z,1017.94
2018-05-19T11:15:10.487Z,1017.94
2018-05-19T11:16:10.511Z,1018
2018-05-19T11:17:10.545Z,1017.97
2018-05-19T11:18:10.569Z,1017.95
2018-05-19T11:19:10.678Z,1017.9
2018-05-19T11:20:10.631Z,1017.97
2018-05-19T11:21:10.662Z,1017.93
2018-05-19T11:22:10.685Z,1017.88
2018-05-19T11:23:10.710Z,1017.95
2018-05-19T11:24:10.738Z,1017.94
2018-05-19T11:25:10.771Z,1017.91
2018-05-19T11:26:10.794Z,1017.92
2018-05-19T11:27:10.827Z,1017.92
2018-05-19T11:29:10.884Z,1017.87
2018-05-19T11:30:10.907Z,1017.86
2018-05-19T11:31:10.941Z,1017.86
2018-05-19T11:32:10.969Z,1017.82
2018-05-19T11:33:10.991Z,1017.81
2018-05-19T11:34:11.024Z,1017.88
2018-05-19T11:35:11.048Z,1017.87
2018-05-19T11:36:11.081Z,1017.8
2018-05-19T11:37:11.102Z,1017.82
2018-05-19T11:38:11.132Z,1017.8
2018-05-19T11:39:11.161Z,1017.8
2018-05-19T11:40:11.197Z,1017.75
2018-05-19T11:41:11.220Z,1017.73
2018-05-19T11:42:11.244Z,1017.74
2018-05-19T11:43:11.277Z,1017.73
2018-05-19T11:45:11.333Z,1017.73
2018-05-19T11:46:11.356Z,1017.73
2018-05-19T11:47:11.466Z,1017.72
2018-05-19T11:48:11.412Z,1017.76
2018-05-19T11:49:11.444Z,1017.78
2018-05-19T11:50:11.473Z,1017.78
2018-05-19T11:51:11.501Z,1017.79
2018-05-19T11:52:11.524Z,1017.81
2018-05-19T11:53:11.557Z,1017.77
2018-05-19T11:54:11.581Z,1017.8
2018-05-19T11:55:11.610Z,1017.76
2018-05-19T11:56:11.636Z,1017.77
2018-05-19T11:57:11.669Z,1017.82
2018-05-19T11:58:11.696Z,1017.78
2018-05-19T11:59:11.719Z,1017.72
2018-05-19T12:01:11.780Z,1017.79
2018-05-19T12:02:11.804Z,1017.86
2018-05-19T12:03:11.836Z,1017.72
2018-05-19T12:04:11.859Z,1017.78
2018-05-19T12:05:11.886Z,1017.75
2018-05-19T12:06:11.920Z,1017.76
2018-05-19T12:07:11.943Z,1017.75
2018-05-19T12:08:11.978Z,1017.69
2018-05-19T12:09:11.998Z,1017.73
2018-05-19T12:10:12.030Z,1017.62
2018-05-19T12:11:12.055Z,1017.7
2018-05-19T12:12:12.198Z,1017.74
2018-05-19T12:13:12.109Z,1017.73
2018-05-19T12:14:12.142Z,1017.76
2018-05-19T12:16:12.198Z,1017.75
2018-05-19T12:17:12.220Z,1017.78
2018-05-19T12:18:12.253Z,1017.67
2018-05-19T12:19:12.281Z,1017.7
2018-05-19T12:20:12.316Z,1017.69
2018-05-19T12:21:12.332Z,1017.68
2018-05-19T12:22:12.363Z,1017.7
2018-05-19T12:23:12.390Z,1017.71
2018-05-19T12:24:12.413Z,1017.68
2018-05-19T12:25:12.446Z,1017.63
2018-05-19T12:26:12.469Z,1017.6
2018-05-19T12:27:12.502Z,1017.61
2018-05-19T12:28:12.525Z,1017.66
2018-05-19T12:29:12.552Z,1017.6
2018-05-19T12:30:12.584Z,1017.61
2018-05-19T12:31:12.612Z,1017.56
2018-05-19T12:32:12.639Z,1017.58
2018-05-19T12:33:12.663Z,1017.6
2018-05-19T12:34:12.694Z,1017.62
2018-05-19T12:35:12.717Z,1017.6
2018-05-19T12:36:12.752Z,1017.62
2018-05-19T12:37:12.773Z,1017.6
2018-05-19T12:38:12.813Z,1017.58
2018-05-19T12:39:12.835Z,1017.58
2018-05-19T12:40:12.855Z,1017.57
2018-05-19T12:41:12.882Z,1017.63
2018-05-19T12:42:12.959Z,1017.72
2018-05-19T12:43:12.976Z,1017.67
2018-05-19T12:44:12.968Z,1017.58
2018-05-19T12:45:12.992Z,1017.57
2018-05-19T12:46:13.029Z,1017.6
2018-05-19T12:48:13.079Z,1017.62
2018-05-19T12:49:13.106Z,1017.56
2018-05-19T12:50:13.128Z,1017.58